San Antonio International Airport
KSAT : now visible

Airfield :











YOU CAN JOIN US ON...

 
LOGIN :

Register | Disclaimer

   EN    FR    IT 

 









Legend :    VFR   Marginal VFR   IFR   Intensive IFR   Very Intensive IFR
Visi :
Ceiling :
>= 8 km
>= 3000ft
5 to 8 km
1000 to 3000 ft
1500m to 5 km
500 to 1000 ft
800 to 1500m
200 to 500 ft
< 800m
< 200 ft
Symbols :   Thunderstorms  Fog  Heavy snow  Heavy precipitations  Wind > 20 kt







- Airport Elevation : 809 ft
- IATA code : SAT


KSAT - San Antonio International

CURRENT METAR :
  • 181551Z 31015G19KT 10SM FEW022 21/13 A2983 RMK AO2 SLP084 T02060128

EXPIRED METARs :
  • 181538Z 29011KT 10SM FEW020 20/14 A2981 RMK AO2 WSHFT 37 T02000144
  • 181451Z 24007KT 10SM FEW012 FEW100 17/14 A2981 RMK AO2 SLP079 T01720139 50018
  • 181425Z 24010KT 10SM SCT012 BKN250 17/14 A2981 RMK AO2 T01670139 $
  • 181351Z 28006KT 10SM BKN010 BKN140 BKN250 16/14 A2981 RMK AO2 SLP080 SHRA DSNT N-E T01560139 $

TAF KSAT
Valid from the 18 at 12:00 until the 19 at 18:00 UTC


181123Z 1812/1918 22006KT P6SM SCT015 BKN130 OVC250
TEMPO 1812/1814 BKN015
FM181400 30010KT P6SM FEW015
FM181600 33016G26KT P6SM SCT040
FM190300 33005KT P6SM SCT120
FM191500 34009KT P6SM FEW035
KZHU FIR / North America



MET'MAP, your aeronautical weather chart ! - Copyright ORBIFLY December 2007 - Disclaimer

ORBIFLY MET'MAP TEAM :

Programming & Development : Alexandra Zaïnal
Concept & Development : Baudouin d'Aumeries
Co-Development & Prog : Marc-Olivier Méhu
Technical & hardware support : Manuel Goepfert

Contact : metmap@orbifly.com




SOURCES & CREDITS :

   NOAA       Earth
Advisory